createdAt,value
2023-05-10T00:01:47.877Z,99.99
2023-05-10T00:04:16.481Z,99.99
2023-05-10T00:06:45.709Z,99.99
2023-05-10T00:09:13.708Z,99.99
2023-05-10T00:11:42.425Z,99.99
2023-05-10T00:14:10.877Z,99.99
2023-05-10T00:16:40.243Z,99.99
2023-05-10T00:19:08.580Z,99.99
2023-05-10T00:21:36.951Z,99.99
2023-05-10T00:24:05.785Z,99.99
2023-05-10T00:26:33.698Z,99.99
2023-05-10T00:29:02.355Z,99.99
2023-05-10T00:31:30.795Z,99.99
2023-05-10T00:34:00.610Z,99.99
2023-05-10T00:36:29.303Z,99.99
2023-05-10T00:38:57.699Z,99.99
2023-05-10T00:41:25.715Z,99.99
2023-05-10T00:43:53.843Z,99.99
2023-05-10T00:46:23.334Z,99.99
2023-05-10T00:48:51.629Z,99.99
2023-05-10T00:51:22.244Z,99.99
2023-05-10T00:53:52.056Z,99.99
2023-05-10T00:56:24.257Z,99.99
2023-05-10T00:58:52.457Z,99.99
2023-05-10T01:01:21.504Z,99.99
2023-05-10T01:03:50.028Z,99.99
2023-05-10T01:06:17.908Z,99.99
2023-05-10T01:08:48.693Z,99.99
2023-05-10T01:11:17.604Z,99.99
2023-05-10T01:13:48.203Z,99.99
2023-05-10T01:16:17.370Z,99.99
2023-05-10T01:18:46.623Z,99.99
2023-05-10T01:21:23.324Z,99.99
2023-05-10T01:24:14.788Z,99.99
2023-05-10T01:27:17.743Z,99.99
2023-05-10T01:30:32.958Z,99.99
2023-05-10T01:33:07.403Z,99.99
2023-05-10T01:35:42.573Z,99.99
2023-05-10T01:38:19.113Z,99.99
2023-05-10T01:41:01.580Z,99.99
2023-05-10T01:43:35.234Z,99.99
2023-05-10T01:46:12.458Z,99.99
2023-05-10T01:48:49.311Z,99.99
2023-05-10T01:51:22.412Z,99.99
2023-05-10T01:53:52.295Z,99.99
2023-05-10T01:56:25.680Z,99.99
2023-05-10T01:58:57.332Z,99.99
2023-05-10T02:01:28.221Z,99.99
2023-05-10T02:03:59.300Z,99.99
2023-05-10T02:06:29.839Z,99.99
2023-05-10T02:08:58.284Z,99.99
2023-05-10T02:11:27.760Z,99.99
2023-05-10T02:13:58.761Z,99.99
2023-05-10T02:16:31.867Z,99.99
2023-05-10T02:19:04.472Z,99.99
2023-05-10T02:21:33.785Z,99.99
2023-05-10T02:24:08.990Z,99.99
2023-05-10T02:27:00.702Z,99.99
2023-05-10T02:29:30.865Z,99.99
2023-05-10T02:32:00.384Z,99.99
2023-05-10T02:34:30.609Z,99.99
2023-05-10T02:36:59.004Z,99.99
2023-05-10T02:39:29.380Z,99.99
2023-05-10T02:41:59.597Z,99.99
2023-05-10T02:44:32.513Z,99.99
2023-05-10T02:47:01.336Z,99.99
2023-05-10T02:49:32.474Z,99.99
2023-05-10T02:52:06.796Z,99.99
2023-05-10T02:54:39.849Z,99.99
2023-05-10T02:57:12.138Z,99.99
2023-05-10T02:59:41.034Z,99.99
2023-05-10T03:02:09.678Z,99.99
2023-05-10T03:04:39.218Z,99.99
2023-05-10T03:07:08.170Z,99.99
2023-05-10T03:09:36.608Z,99.99
2023-05-10T03:12:13.044Z,99.99
2023-05-10T03:14:51.956Z,99.99
2023-05-10T03:17:27.790Z,99.99
2023-05-10T03:19:59.695Z,99.99
2023-05-10T03:22:30.630Z,99.99
2023-05-10T03:25:00.506Z,99.99
2023-05-10T03:27:32.636Z,99.99
2023-05-10T03:30:02.589Z,99.99
2023-05-10T03:32:35.423Z,99.99
2023-05-10T03:35:09.393Z,99.99
2023-05-10T03:37:38.151Z,99.99
2023-05-10T03:40:08.729Z,99.99
2023-05-10T03:42:39.555Z,99.99
2023-05-10T03:45:08.747Z,99.99
2023-05-10T03:47:37.048Z,99.99
2023-05-10T03:50:08.658Z,99.99
2023-05-10T03:52:36.627Z,99.99
2023-05-10T03:55:05.468Z,99.99
2023-05-10T03:57:33.908Z,99.99
2023-05-10T04:00:02.020Z,99.99
2023-05-10T04:02:31.477Z,99.99
2023-05-10T04:05:00.014Z,99.99
2023-05-10T04:07:29.487Z,99.99
2023-05-10T04:09:57.886Z,99.99
2023-05-10T04:12:26.268Z,99.99
2023-05-10T04:14:54.690Z,99.99
2023-05-10T04:17:23.111Z,99.99
2023-05-10T04:19:54.057Z,99.99
2023-05-10T04:22:22.982Z,99.99
2023-05-10T04:24:52.803Z,99.99
2023-05-10T04:27:20.839Z,99.99
2023-05-10T04:29:49.787Z,99.99
2023-05-10T04:32:18.295Z,99.99
2023-05-10T04:34:47.293Z,99.99
2023-05-10T04:37:15.266Z,99.99
2023-05-10T04:39:44.164Z,99.99
2023-05-10T04:42:16.321Z,99.99
2023-05-10T04:44:44.627Z,99.99
2023-05-10T04:47:14.642Z,99.99
2023-05-10T04:49:42.576Z,99.99
2023-05-10T04:52:11.775Z,99.99
2023-05-10T04:54:39.708Z,99.99
2023-05-10T04:57:07.638Z,99.99
2023-05-10T04:59:38.356Z,99.99
2023-05-10T05:02:07.211Z,99.99
2023-05-10T05:04:36.264Z,99.99
2023-05-10T05:07:04.685Z,99.99
2023-05-10T05:09:33.180Z,99.99
2023-05-10T05:12:01.664Z,99.99
2023-05-10T05:14:29.620Z,99.99
2023-05-10T05:16:58.899Z,99.99
2023-05-10T05:19:27.877Z,99.99
2023-05-10T05:21:56.271Z,99.99
2023-05-10T05:24:24.229Z,99.99
2023-05-10T05:26:53.179Z,99.99
2023-05-10T05:29:21.107Z,99.99
2023-05-10T05:31:49.494Z,99.99
2023-05-10T05:34:18.802Z,99.99
2023-05-10T05:36:47.690Z,99.99
2023-05-10T05:39:15.931Z,99.99
2023-05-10T05:41:44.635Z,99.99
2023-05-10T05:44:13.048Z,99.99
2023-05-10T05:46:41.514Z,99.99
2023-05-10T05:49:09.480Z,99.99
2023-05-10T05:51:39.728Z,99.99
2023-05-10T05:54:08.039Z,99.99
2023-05-10T05:56:35.926Z,99.99
2023-05-10T05:59:05.168Z,99.99
2023-05-10T06:01:33.101Z,99.99
2023-05-10T06:04:02.031Z,99.99
2023-05-10T06:06:30.289Z,99.99
2023-05-10T06:09:00.076Z,99.99
2023-05-10T06:11:28.515Z,99.99
2023-05-10T06:13:56.467Z,99.99
2023-05-10T06:16:25.344Z,99.99
2023-05-10T06:18:53.259Z,99.99
2023-05-10T06:21:22.057Z,99.99
2023-05-10T06:23:50.431Z,99.99
2023-05-10T06:26:19.675Z,99.99
2023-05-10T06:28:47.624Z,99.99
2023-05-10T06:31:16.102Z,99.99
2023-05-10T06:33:44.180Z,99.99
2023-05-10T06:36:13.088Z,99.99
2023-05-10T06:38:41.762Z,99.99
2023-05-10T06:41:09.927Z,99.99
2023-05-10T06:43:42.696Z,99.99
2023-05-10T06:46:11.195Z,99.99
2023-05-10T06:48:39.125Z,99.99
2023-05-10T06:51:07.576Z,99.99
2023-05-10T06:53:35.521Z,99.99
2023-05-10T06:56:05.094Z,99.99
2023-05-10T06:58:34.413Z,99.99
2023-05-10T07:01:07.712Z,99.99
2023-05-10T07:03:36.807Z,99.99
2023-05-10T07:06:05.774Z,99.99
2023-05-10T07:08:34.261Z,99.99
2023-05-10T07:11:03.834Z,99.99
2023-05-10T07:13:32.689Z,99.99
2023-05-10T07:16:01.547Z,99.99
2023-05-10T07:18:31.955Z,99.99
2023-05-10T07:20:59.851Z,99.99
2023-05-10T07:23:27.840Z,99.99
2023-05-10T07:25:56.484Z,99.99
2023-05-10T07:28:26.188Z,99.99
2023-05-10T07:30:54.205Z,99.99
2023-05-10T07:33:22.690Z,99.99
2023-05-10T07:35:52.161Z,99.99
2023-05-10T07:38:20.547Z,99.99
2023-05-10T07:40:48.497Z,99.99
2023-05-10T07:43:16.879Z,99.99
2023-05-10T07:45:45.308Z,99.99
2023-05-10T07:48:13.222Z,99.99
2023-05-10T07:50:41.995Z,99.99
2023-05-10T07:53:11.516Z,99.99
2023-05-10T07:55:40.313Z,99.99
2023-05-10T07:58:08.203Z,99.34
2023-05-10T08:00:37.060Z,98.93
2023-05-10T08:03:05.270Z,99.55
2023-05-10T08:05:35.232Z,99.99
2023-05-10T08:08:03.696Z,99.44
2023-05-10T08:10:33.694Z,99.18
2023-05-10T08:13:01.603Z,99.20
2023-05-10T08:15:30.453Z,98.99
2023-05-10T08:17:58.900Z,99.07
2023-05-10T08:20:26.969Z,98.30
2023-05-10T08:22:55.368Z,98.46
2023-05-10T08:25:23.806Z,96.80
2023-05-10T08:27:53.115Z,96.12
2023-05-10T08:30:22.104Z,95.46
2023-05-10T08:32:50.709Z,96.53
2023-05-10T08:35:18.895Z,95.66
2023-05-10T08:37:47.410Z,95.41
2023-05-10T08:40:16.449Z,95.08
2023-05-10T08:42:52.720Z,92.97
2023-05-10T08:45:25.071Z,92.12
2023-05-10T08:47:54.530Z,93.09
2023-05-10T08:50:23.676Z,92.93
2023-05-10T08:52:55.089Z,92.96
2023-05-10T08:55:24.279Z,93.25
2023-05-10T08:57:53.190Z,95.71
2023-05-10T09:00:24.658Z,96.38
2023-05-10T09:02:53.729Z,98.62
2023-05-10T09:05:21.974Z,99.90
2023-05-10T09:07:50.509Z,99.99
2023-05-10T09:10:18.849Z,99.99
2023-05-10T09:12:48.388Z,99.99
2023-05-10T09:15:17.770Z,99.99
2023-05-10T09:17:48.768Z,99.99
2023-05-10T09:20:18.369Z,99.99
2023-05-10T09:22:46.950Z,99.45
2023-05-10T09:25:17.987Z,98.80
2023-05-10T09:27:48.211Z,99.10
2023-05-10T09:30:19.748Z,97.78
2023-05-10T09:32:51.154Z,96.49
2023-05-10T09:35:22.093Z,94.82
2023-05-10T09:37:51.600Z,94.89
2023-05-10T09:40:22.121Z,95.70
2023-05-10T09:42:54.623Z,96.11
2023-05-10T09:45:24.000Z,94.98
2023-05-10T09:47:53.497Z,91.72
2023-05-10T09:50:21.718Z,92.94
2023-05-10T09:52:52.464Z,91.06
2023-05-10T09:55:22.774Z,91.51
2023-05-10T09:58:00.687Z,89.82
2023-05-10T10:00:29.333Z,87.14
2023-05-10T10:03:00.702Z,88.64
2023-05-10T10:05:31.855Z,88.72
2023-05-10T10:08:01.705Z,87.23
2023-05-10T10:10:31.134Z,86.14
2023-05-10T10:12:59.317Z,89.37
2023-05-10T10:15:28.176Z,86.68
2023-05-10T10:17:56.483Z,86.61
2023-05-10T10:20:26.643Z,85.84
2023-05-10T10:22:56.170Z,84.89
2023-05-10T10:25:25.129Z,85.93
2023-05-10T10:28:13.373Z,83.69
2023-05-10T10:30:44.765Z,82.38
2023-05-10T10:33:33.366Z,82.93
2023-05-10T10:36:05.070Z,80.74
2023-05-10T10:39:00.702Z,81.30
2023-05-10T10:41:33.885Z,84.38
2023-05-10T10:44:28.249Z,83.63
2023-05-10T10:47:09.690Z,83.44
2023-05-10T10:49:45.801Z,83.17
2023-05-10T10:52:24.794Z,83.45
2023-05-10T10:54:54.017Z,85.59
2023-05-10T10:57:23.798Z,84.70
2023-05-10T10:59:52.266Z,85.50
2023-05-10T11:02:45.585Z,84.48
2023-05-10T11:05:47.308Z,83.18
2023-05-10T11:08:23.325Z,83.06
2023-05-10T11:11:04.396Z,81.34
2023-05-10T11:13:34.563Z,81.49
2023-05-10T11:16:16.134Z,78.21
2023-05-10T11:19:03.385Z,78.10
2023-05-10T11:21:32.337Z,74.00
2023-05-10T11:24:07.283Z,74.80
2023-05-10T11:26:38.188Z,74.25
2023-05-10T11:29:07.133Z,75.65
2023-05-10T11:31:35.160Z,74.61
2023-05-10T11:34:03.942Z,77.76
2023-05-10T11:36:36.149Z,77.06
2023-05-10T11:39:06.680Z,79.09
2023-05-10T11:41:35.553Z,78.55
2023-05-10T11:44:04.102Z,77.73
2023-05-10T11:46:32.619Z,75.74
2023-05-10T11:49:05.821Z,76.63
2023-05-10T11:51:37.101Z,76.33
2023-05-10T11:54:11.059Z,77.06
2023-05-10T11:56:39.925Z,76.98
2023-05-10T11:59:09.055Z,76.19
2023-05-10T12:01:37.960Z,78.22
2023-05-10T12:04:06.231Z,80.21
2023-05-10T12:06:40.304Z,80.19
2023-05-10T12:09:10.120Z,79.97
2023-05-10T12:11:41.861Z,82.81
2023-05-10T12:14:13.227Z,86.11
2023-05-10T12:16:41.258Z,89.98
2023-05-10T12:19:09.854Z,93.97
2023-05-10T12:21:40.272Z,99.99
2023-05-10T12:24:18.732Z,99.99
2023-05-10T12:26:49.865Z,99.99
2023-05-10T12:29:19.116Z,99.99
2023-05-10T12:31:55.638Z,99.99
2023-05-10T12:34:33.114Z,99.99
2023-05-10T12:37:02.695Z,99.99
2023-05-10T12:39:42.568Z,99.78
2023-05-10T12:42:12.118Z,99.32
2023-05-10T12:44:40.800Z,98.82
2023-05-10T12:47:12.206Z,97.51
2023-05-10T12:49:40.406Z,99.22
2023-05-10T12:52:08.673Z,98.05
2023-05-10T12:54:37.038Z,97.46
2023-05-10T12:57:06.569Z,97.31
2023-05-10T12:59:36.074Z,96.69
2023-05-10T13:02:07.125Z,96.28
2023-05-10T13:04:35.261Z,92.73
2023-05-10T13:07:04.156Z,89.20
2023-05-10T13:09:32.110Z,91.18
2023-05-10T13:12:00.103Z,91.26
2023-05-10T13:14:30.138Z,87.74
2023-05-10T13:16:59.027Z,89.89
2023-05-10T13:19:28.051Z,90.81
2023-05-10T13:21:56.147Z,90.36
2023-05-10T13:24:24.542Z,91.06
2023-05-10T13:26:52.649Z,91.14
2023-05-10T13:29:21.987Z,92.58
2023-05-10T13:31:52.279Z,91.92
2023-05-10T13:34:22.249Z,92.58
2023-05-10T13:36:50.513Z,92.03
2023-05-10T13:39:19.694Z,93.29
2023-05-10T13:41:47.617Z,95.45
2023-05-10T13:44:16.734Z,95.96
2023-05-10T13:46:45.101Z,96.49
2023-05-10T13:49:22.184Z,99.99
2023-05-10T13:51:52.859Z,99.99
2023-05-10T13:54:23.087Z,99.99
2023-05-10T13:56:51.543Z,99.99
2023-05-10T13:59:20.545Z,99.99
2023-05-10T14:01:48.508Z,99.99
2023-05-10T14:04:16.952Z,99.99
2023-05-10T14:06:46.458Z,99.99
2023-05-10T14:09:14.893Z,99.99
2023-05-10T14:11:44.741Z,99.99
2023-05-10T14:14:12.838Z,99.99
2023-05-10T14:16:45.245Z,99.99
2023-05-10T14:19:13.630Z,99.99
2023-05-10T14:21:41.960Z,99.99
2023-05-10T14:24:12.211Z,99.99
2023-05-10T14:26:39.981Z,99.99
2023-05-10T14:29:09.318Z,99.99
2023-05-10T14:31:39.669Z,99.99
2023-05-10T14:34:07.780Z,99.99
2023-05-10T14:36:36.273Z,99.99
2023-05-10T14:39:05.142Z,99.99
2023-05-10T14:41:36.688Z,99.99
2023-05-10T14:44:04.579Z,99.99
2023-05-10T14:46:33.459Z,98.69
2023-05-10T14:49:01.568Z,97.47
2023-05-10T14:51:29.959Z,98.78
2023-05-10T14:53:58.537Z,98.05
2023-05-10T14:56:26.847Z,97.06
2023-05-10T14:58:56.618Z,96.92
2023-05-10T15:01:24.953Z,95.07
2023-05-10T15:03:54.179Z,95.31
2023-05-10T15:06:26.155Z,94.92
2023-05-10T15:08:54.957Z,94.26
2023-05-10T15:11:22.920Z,93.69
2023-05-10T15:13:50.820Z,93.86
2023-05-10T15:16:21.613Z,94.78
2023-05-10T15:18:50.420Z,96.50
2023-05-10T15:21:18.395Z,96.02
2023-05-10T15:23:47.728Z,96.19
2023-05-10T15:26:15.767Z,96.12
2023-05-10T15:28:44.624Z,96.52
2023-05-10T15:31:13.079Z,96.87
2023-05-10T15:33:42.468Z,97.47
2023-05-10T15:36:10.763Z,96.52
2023-05-10T15:38:39.145Z,97.94
2023-05-10T15:41:07.268Z,99.59
2023-05-10T15:43:35.254Z,99.99
2023-05-10T15:46:04.204Z,99.99
2023-05-10T15:48:32.416Z,99.99
2023-05-10T15:51:01.748Z,99.99
2023-05-10T15:53:30.406Z,99.99
2023-05-10T15:55:58.354Z,99.99
2023-05-10T15:58:27.182Z,99.99
2023-05-10T16:00:55.148Z,99.99
2023-05-10T16:03:23.798Z,99.99
2023-05-10T16:05:53.756Z,99.99
2023-05-10T16:08:23.155Z,99.99
2023-05-10T16:10:52.397Z,99.99
2023-05-10T16:13:21.047Z,99.99
2023-05-10T16:15:49.132Z,99.99
2023-05-10T16:18:17.945Z,99.99
2023-05-10T16:20:47.277Z,99.99
2023-05-10T16:23:16.176Z,99.99
2023-05-10T16:25:45.730Z,99.99
2023-05-10T16:28:13.981Z,99.99
2023-05-10T16:30:42.339Z,99.99
2023-05-10T16:33:10.897Z,99.99
2023-05-10T16:35:38.881Z,99.99
2023-05-10T16:38:06.953Z,99.99
2023-05-10T16:40:36.048Z,99.99
2023-05-10T16:43:05.356Z,99.99
2023-05-10T16:45:33.938Z,99.99
2023-05-10T16:48:02.379Z,99.99
2023-05-10T16:50:30.948Z,99.99
2023-05-10T16:52:59.147Z,99.99
2023-05-10T16:55:27.314Z,99.99
2023-05-10T16:58:00.140Z,99.99
2023-05-10T17:00:29.795Z,99.99
2023-05-10T17:02:58.402Z,99.99
2023-05-10T17:05:27.472Z,99.99
2023-05-10T17:07:56.041Z,99.99
2023-05-10T17:10:24.453Z,99.99
2023-05-10T17:12:54.095Z,99.99
2023-05-10T17:15:22.211Z,99.99
2023-05-10T17:17:52.192Z,99.99
2023-05-10T17:20:21.431Z,99.99
2023-05-10T17:22:49.682Z,99.99
2023-05-10T17:25:18.631Z,99.99
2023-05-10T17:27:47.935Z,99.99
2023-05-10T17:30:17.044Z,99.99
2023-05-10T17:32:45.753Z,99.99
2023-05-10T17:35:16.067Z,99.99
2023-05-10T17:37:44.879Z,99.99
2023-05-10T17:40:13.498Z,99.99
2023-05-10T17:42:42.326Z,99.99
2023-05-10T17:45:11.608Z,99.99
2023-05-10T17:47:40.142Z,99.99
2023-05-10T17:50:10.579Z,99.99
2023-05-10T17:52:40.016Z,99.99
2023-05-10T17:55:09.739Z,99.99
2023-05-10T17:57:38.820Z,99.99
2023-05-10T18:00:08.817Z,99.99
2023-05-10T18:02:38.647Z,99.99
2023-05-10T18:05:07.450Z,99.99
2023-05-10T18:07:36.267Z,99.99
2023-05-10T18:10:07.124Z,99.99
2023-05-10T18:12:35.002Z,99.99
2023-05-10T18:15:04.061Z,99.99
2023-05-10T18:17:33.986Z,99.99
2023-05-10T18:20:02.264Z,99.99
2023-05-10T18:22:30.235Z,99.99
2023-05-10T18:24:58.274Z,99.99
2023-05-10T18:27:27.667Z,99.99
2023-05-10T18:29:59.264Z,99.99
2023-05-10T18:32:28.021Z,99.99
2023-05-10T18:34:56.635Z,99.99
2023-05-10T18:37:25.599Z,99.99
2023-05-10T18:39:53.982Z,99.99
2023-05-10T18:42:22.372Z,99.99
2023-05-10T18:44:51.853Z,99.99
2023-05-10T18:47:19.892Z,99.99
2023-05-10T18:49:48.321Z,99.99
2023-05-10T18:52:18.416Z,99.99
2023-05-10T18:54:46.607Z,99.99
2023-05-10T18:57:14.683Z,99.99
2023-05-10T18:59:43.310Z,99.99
2023-05-10T19:02:12.730Z,99.99
2023-05-10T19:04:40.787Z,99.99
2023-05-10T19:07:09.275Z,99.99
2023-05-10T19:09:37.217Z,99.99
2023-05-10T19:12:05.462Z,99.99
2023-05-10T19:14:33.939Z,99.99
2023-05-10T19:17:03.285Z,99.99
2023-05-10T19:19:32.763Z,99.99
2023-05-10T19:22:01.420Z,99.99
2023-05-10T19:24:29.566Z,99.99
2023-05-10T19:26:58.140Z,99.99
2023-05-10T19:29:27.255Z,99.99
2023-05-10T19:31:55.591Z,99.99
2023-05-10T19:34:24.050Z,99.99
2023-05-10T19:36:53.848Z,99.99
2023-05-10T19:39:21.682Z,99.99
2023-05-10T19:41:50.322Z,99.99
2023-05-10T19:44:19.356Z,99.99
2023-05-10T19:46:47.431Z,99.99
2023-05-10T19:49:15.989Z,99.99
2023-05-10T19:51:44.541Z,99.99
2023-05-10T19:54:13.893Z,99.99
2023-05-10T19:56:42.213Z,99.99
2023-05-10T19:59:10.178Z,99.99
2023-05-10T20:01:38.637Z,99.99
2023-05-10T20:04:07.288Z,99.99
2023-05-10T20:06:35.370Z,99.99
2023-05-10T20:09:03.788Z,99.99
2023-05-10T20:11:33.680Z,99.99
2023-05-10T20:14:01.468Z,99.99
2023-05-10T20:16:29.925Z,99.99
2023-05-10T20:18:58.051Z,99.99
2023-05-10T20:21:26.651Z,99.99
2023-05-10T20:23:55.098Z,99.99
2023-05-10T20:26:23.996Z,99.99
2023-05-10T20:28:53.793Z,99.99
2023-05-10T20:31:22.122Z,99.99
2023-05-10T20:33:50.717Z,99.99
2023-05-10T20:36:18.761Z,99.99
2023-05-10T20:38:46.733Z,99.99
2023-05-10T20:41:15.978Z,99.99
2023-05-10T20:43:44.005Z,99.99
2023-05-10T20:46:13.990Z,99.99
2023-05-10T20:48:42.089Z,99.99
2023-05-10T20:51:10.088Z,99.99
2023-05-10T20:53:40.038Z,99.99
2023-05-10T20:56:08.093Z,99.99
2023-05-10T20:58:36.610Z,99.99
2023-05-10T21:01:06.628Z,99.99
2023-05-10T21:03:36.031Z,99.99
2023-05-10T21:06:04.348Z,99.99
2023-05-10T21:08:32.848Z,99.99
2023-05-10T21:11:04.779Z,99.99
2023-05-10T21:13:33.908Z,99.99
2023-05-10T21:16:01.936Z,99.99
2023-05-10T21:18:29.960Z,99.99
2023-05-10T21:20:59.938Z,99.99
2023-05-10T21:23:27.909Z,99.99
2023-05-10T21:25:56.681Z,99.99
2023-05-10T21:28:24.767Z,99.99
2023-05-10T21:30:53.970Z,99.99
2023-05-10T21:33:22.122Z,99.99
2023-05-10T21:35:50.311Z,99.99
2023-05-10T21:38:19.734Z,99.99
2023-05-10T21:40:48.473Z,99.99
2023-05-10T21:43:16.458Z,99.99
2023-05-10T21:45:44.470Z,99.99
2023-05-10T21:48:14.259Z,99.99
2023-05-10T21:50:43.815Z,99.99
2023-05-10T21:53:12.288Z,99.99
2023-05-10T21:55:42.760Z,99.99
2023-05-10T21:58:11.027Z,99.99
2023-05-10T22:00:38.985Z,99.99
2023-05-10T22:03:07.899Z,99.99
2023-05-10T22:05:35.909Z,99.99
2023-05-10T22:08:06.416Z,99.99
2023-05-10T22:10:34.850Z,99.99
2023-05-10T22:13:04.228Z,99.99
2023-05-10T22:15:36.133Z,99.99
2023-05-10T22:18:05.543Z,99.99
2023-05-10T22:20:33.974Z,99.99
2023-05-10T22:23:02.594Z,99.99
2023-05-10T22:25:30.707Z,99.99
2023-05-10T22:27:59.838Z,99.99
2023-05-10T22:30:33.351Z,99.99
2023-05-10T22:33:13.977Z,99.99
2023-05-10T22:42:52.404Z,99.99
2023-05-10T22:45:20.454Z,99.99
2023-05-10T22:47:50.274Z,99.99
2023-05-10T22:50:18.641Z,99.99
2023-05-10T22:52:46.827Z,99.99
2023-05-10T22:55:15.723Z,99.99
2023-05-10T22:57:43.818Z,99.99
2023-05-10T23:00:13.225Z,99.99
2023-05-10T23:02:42.357Z,99.99
2023-05-10T23:05:13.709Z,99.99
2023-05-10T23:07:43.085Z,99.99
2023-05-10T23:10:12.081Z,99.99
2023-05-10T23:12:40.514Z,99.99
2023-05-10T23:15:09.928Z,99.99
2023-05-10T23:17:38.367Z,99.99
2023-05-10T23:20:07.507Z,99.99
2023-05-10T23:22:37.441Z,99.99
2023-05-10T23:25:07.427Z,99.99
2023-05-10T23:27:35.373Z,99.99
2023-05-10T23:30:04.450Z,99.99
2023-05-10T23:32:33.369Z,99.99
2023-05-10T23:35:01.465Z,99.99
2023-05-10T23:37:30.448Z,99.99
2023-05-10T23:40:00.261Z,99.99
2023-05-10T23:42:28.833Z,99.99
2023-05-10T23:44:57.881Z,99.99
2023-05-10T23:47:26.080Z,99.99
2023-05-10T23:49:54.074Z,99.99
2023-05-10T23:52:25.024Z,99.99
2023-05-10T23:54:54.522Z,99.99
2023-05-10T23:57:23.911Z,99.99
2023-05-10T23:59:52.126Z,99.99
